createdAt,value
2023-10-11T00:00:33.643Z,20.70
2023-10-11T00:03:06.668Z,20.70
2023-10-11T00:05:40.699Z,20.70
2023-10-11T00:08:09.590Z,20.70
2023-10-11T00:10:44.763Z,20.70
2023-10-11T00:13:13.032Z,20.60
2023-10-11T00:15:40.174Z,20.60
2023-10-11T00:18:07.554Z,20.60
2023-10-11T00:20:40.684Z,20.60
2023-10-11T00:23:07.791Z,20.70
2023-10-11T00:25:34.920Z,20.60
2023-10-11T00:28:02.684Z,20.60
2023-10-11T00:30:33.735Z,20.60
2023-10-11T00:33:01.074Z,20.60
2023-10-11T00:35:28.324Z,20.60
2023-10-11T00:37:55.732Z,20.60
2023-10-11T00:40:26.448Z,20.60
2023-10-11T00:42:53.896Z,20.60
2023-10-11T00:45:24.314Z,20.60
2023-10-11T00:47:52.624Z,20.70
2023-10-11T00:50:24.824Z,20.70
2023-10-11T00:52:52.339Z,20.70
2023-10-11T00:55:22.770Z,20.70
2023-10-11T00:57:50.896Z,20.70
2023-10-11T01:00:22.541Z,20.70
2023-10-11T01:02:53.821Z,20.80
2023-10-11T01:05:21.080Z,20.80
2023-10-11T01:07:51.484Z,20.60
2023-10-11T01:10:23.834Z,20.70
2023-10-11T01:12:51.176Z,20.70
2023-10-11T01:15:23.435Z,20.70
2023-10-11T01:17:50.660Z,20.70
2023-10-11T01:20:20.650Z,20.60
2023-10-11T01:22:48.329Z,20.60
2023-10-11T01:25:21.708Z,20.60
2023-10-11T01:27:49.402Z,20.60
2023-10-11T01:30:16.589Z,20.60
2023-10-11T01:32:43.843Z,20.50
2023-10-11T01:35:20.490Z,20.60
2023-10-11T01:37:55.698Z,20.60
2023-10-11T01:40:25.033Z,20.30
2023-10-11T01:42:52.529Z,20.60
2023-10-11T01:45:24.348Z,20.60
2023-10-11T01:47:57.579Z,20.60
2023-10-11T01:50:25.649Z,20.70
2023-10-11T01:52:52.986Z,20.80
2023-10-11T01:55:20.309Z,20.80
2023-10-11T01:57:49.829Z,20.80
2023-10-11T02:00:21.649Z,20.80
2023-10-11T02:02:49.007Z,20.80
2023-10-11T02:05:16.526Z,20.80
2023-10-11T02:07:43.703Z,20.70
2023-10-11T02:10:14.703Z,20.70
2023-10-11T02:12:45.744Z,20.70
2023-10-11T02:15:24.461Z,20.70
2023-10-11T02:17:54.822Z,20.70
2023-10-11T02:20:22.910Z,20.70
2023-10-11T02:22:53.762Z,20.70
2023-10-11T02:25:25.518Z,20.70
2023-10-11T02:27:53.874Z,20.70
2023-10-11T02:30:25.862Z,20.70
2023-10-11T02:32:59.969Z,20.60
2023-10-11T02:35:32.316Z,20.80
2023-10-11T02:38:00.914Z,20.80
2023-10-11T02:40:30.792Z,20.80
2023-10-11T02:42:57.915Z,20.80
2023-10-11T02:45:25.180Z,20.80
2023-10-11T02:48:03.667Z,20.80
2023-10-11T02:50:37.359Z,20.80
2023-10-11T02:53:06.336Z,20.80
2023-10-11T02:55:39.235Z,20.70
2023-10-11T02:58:09.593Z,20.70
2023-10-11T03:00:45.071Z,20.70
2023-10-11T03:03:16.459Z,20.70
2023-10-11T03:05:43.775Z,20.60
2023-10-11T03:08:18.165Z,20.60
2023-10-11T03:10:47.068Z,20.60
2023-10-11T03:13:30.741Z,20.60
2023-10-11T03:16:00.439Z,20.60
2023-10-11T03:18:35.108Z,20.70
2023-10-11T03:21:20.807Z,20.60
2023-10-11T03:23:49.742Z,20.60
2023-10-11T03:26:32.210Z,20.50
2023-10-11T03:29:05.364Z,20.60
2023-10-11T03:31:41.323Z,20.60
2023-10-11T03:34:21.100Z,20.60
2023-10-11T03:36:52.424Z,20.50
2023-10-11T03:39:36.664Z,20.70
2023-10-11T03:42:13.239Z,20.60
2023-10-11T03:44:41.426Z,20.70
2023-10-11T03:47:10.084Z,20.70
2023-10-11T03:49:51.854Z,20.70
2023-10-11T03:52:31.687Z,20.70
2023-10-11T03:55:06.497Z,20.70
2023-10-11T03:57:36.754Z,20.70
2023-10-11T04:00:22.669Z,20.70
2023-10-11T04:02:58.154Z,20.70
2023-10-11T04:05:35.100Z,20.70
2023-10-11T04:08:06.306Z,20.70
2023-10-11T04:10:40.628Z,20.60
2023-10-11T04:13:10.895Z,20.60
2023-10-11T04:15:41.728Z,20.60
2023-10-11T04:18:22.528Z,20.60
2023-10-11T04:21:00.556Z,20.70
2023-10-11T04:23:29.127Z,20.70
2023-10-11T04:25:56.678Z,20.70
2023-10-11T04:28:26.706Z,20.60
2023-10-11T04:31:13.862Z,20.60
2023-10-11T04:33:45.468Z,20.60
2023-10-11T04:36:12.700Z,20.60
2023-10-11T04:38:40.989Z,20.60
2023-10-11T04:41:17.581Z,20.50
2023-10-11T04:43:51.484Z,20.60
2023-10-11T04:46:19.563Z,20.40
2023-10-11T04:48:50.097Z,20.60
2023-10-11T04:51:20.246Z,20.50
2023-10-11T04:53:55.641Z,20.50
2023-10-11T04:56:43.558Z,20.60
2023-10-11T04:59:37.674Z,20.50
2023-10-11T05:02:31.933Z,20.50
2023-10-11T05:04:59.555Z,20.60
2023-10-11T05:07:29.139Z,20.70
2023-10-11T05:10:31.647Z,20.70
2023-10-11T05:13:05.108Z,20.70
2023-10-11T05:15:43.958Z,20.70
2023-10-11T05:18:11.470Z,20.70
2023-10-11T05:20:41.742Z,20.60
2023-10-11T05:23:12.861Z,20.50
2023-10-11T05:25:58.855Z,20.50
2023-10-11T05:28:44.852Z,20.50
2023-10-11T05:31:14.704Z,20.60
2023-10-11T05:34:00.676Z,20.70
2023-10-11T05:36:41.434Z,20.70
2023-10-11T05:39:27.375Z,20.70
2023-10-11T05:42:13.320Z,20.80
2023-10-11T05:44:59.100Z,20.80
2023-10-11T05:47:44.745Z,20.60
2023-10-11T05:50:30.613Z,20.80
2023-10-11T05:52:57.754Z,20.70
2023-10-11T05:55:24.977Z,20.70
2023-10-11T05:57:52.328Z,20.70
2023-10-11T06:00:24.454Z,20.70
2023-10-11T06:02:53.251Z,20.70
2023-10-11T06:05:24.619Z,20.70
2023-10-11T06:08:02.172Z,20.70
2023-10-11T06:10:36.376Z,20.60
2023-10-11T06:13:08.406Z,20.60
2023-10-11T06:15:36.307Z,20.60
2023-10-11T06:18:06.300Z,20.60
2023-10-11T06:20:40.071Z,20.60
2023-10-11T06:23:07.248Z,20.60
2023-10-11T06:25:52.933Z,20.60
2023-10-11T06:28:20.109Z,20.70
2023-10-11T06:30:47.917Z,21.40
2023-10-11T06:33:15.582Z,20.60
2023-10-11T06:35:47.933Z,20.60
2023-10-11T06:38:15.087Z,20.50
2023-10-11T06:40:49.856Z,20.50
2023-10-11T06:43:17.041Z,20.50
2023-10-11T06:45:44.290Z,20.40
2023-10-11T06:48:14.568Z,20.60
2023-10-11T06:50:41.937Z,20.60
2023-10-11T06:53:10.496Z,20.60
2023-10-11T06:55:48.925Z,20.70
2023-10-11T06:58:20.628Z,20.70
2023-10-11T07:00:48.433Z,20.60
2023-10-11T07:03:26.208Z,20.70
2023-10-11T07:06:00.369Z,20.60
2023-10-11T07:08:35.599Z,20.60
2023-10-11T07:11:07.561Z,20.60
2023-10-11T07:13:51.315Z,20.60
2023-10-11T07:16:22.507Z,20.60
2023-10-11T07:18:55.411Z,20.60
2023-10-11T07:21:27.423Z,20.70
2023-10-11T07:23:55.399Z,20.70
2023-10-11T07:26:32.722Z,20.70
2023-10-11T07:29:02.706Z,20.60
2023-10-11T07:31:35.019Z,20.70
2023-10-11T07:34:11.775Z,20.60
2023-10-11T07:36:40.388Z,20.70
2023-10-11T07:39:22.293Z,20.70
2023-10-11T07:41:50.542Z,20.60
2023-10-11T07:44:21.016Z,20.60
2023-10-11T07:46:49.363Z,20.60
2023-10-11T07:49:20.587Z,20.70
2023-10-11T07:51:47.736Z,20.70
2023-10-11T07:54:21.165Z,21.00
2023-10-11T07:56:58.436Z,20.70
2023-10-11T07:59:29.178Z,20.70
2023-10-11T08:01:58.349Z,20.70
2023-10-11T08:04:31.685Z,20.70
2023-10-11T08:07:00.557Z,20.70
2023-10-11T08:09:46.964Z,20.70
2023-10-11T08:12:22.965Z,20.70
2023-10-11T08:14:50.394Z,20.70
2023-10-11T08:17:22.910Z,20.70
2023-10-11T08:19:54.950Z,20.70
2023-10-11T08:22:24.246Z,20.60
2023-10-11T08:24:53.653Z,20.70
2023-10-11T08:27:31.419Z,20.40
2023-10-11T08:30:10.370Z,20.30
2023-10-11T08:32:43.417Z,20.20
2023-10-11T08:35:27.864Z,20.80
2023-10-11T08:37:55.283Z,20.10
2023-10-11T08:40:30.662Z,20.10
2023-10-11T08:43:01.174Z,20.10
2023-10-11T08:46:02.315Z,20.10
2023-10-11T08:48:29.868Z,20.10
2023-10-11T08:50:57.917Z,20.10
2023-10-11T08:53:28.233Z,20.10
2023-10-11T08:55:58.343Z,20.10
2023-10-11T08:58:28.703Z,20.10
2023-10-11T09:01:00.264Z,20.20
2023-10-11T09:03:30.804Z,20.20
2023-10-11T09:06:03.662Z,20.30
2023-10-11T09:08:35.044Z,19.90
2023-10-11T09:11:30.063Z,19.80
2023-10-11T09:14:30.649Z,19.80
2023-10-11T09:16:58.463Z,19.90
2023-10-11T09:19:25.775Z,19.90
2023-10-11T09:22:05.108Z,20.00
2023-10-11T09:24:44.991Z,20.00
2023-10-11T09:27:18.879Z,20.00
2023-10-11T09:29:48.389Z,19.90
2023-10-11T09:32:20.637Z,19.80
2023-10-11T09:34:48.561Z,19.80
2023-10-11T09:37:15.806Z,19.80
2023-10-11T09:39:46.225Z,19.80
2023-10-11T09:42:15.102Z,19.80
2023-10-11T09:44:46.755Z,19.90
2023-10-11T09:47:18.334Z,19.90
2023-10-11T09:49:48.260Z,20.00
2023-10-11T09:52:19.806Z,19.90
2023-10-11T09:54:51.909Z,20.00
2023-10-11T09:57:51.256Z,20.00
2023-10-11T10:00:59.502Z,20.10
2023-10-11T10:03:26.956Z,20.00
2023-10-11T10:06:19.502Z,20.00
2023-10-11T10:08:51.443Z,20.10
2023-10-11T10:11:21.003Z,20.00
2023-10-11T10:14:02.214Z,20.10
2023-10-11T10:17:06.836Z,20.10
2023-10-11T10:19:40.864Z,20.10
2023-10-11T10:22:24.229Z,20.10
2023-10-11T10:24:58.150Z,20.20
2023-10-11T10:27:37.457Z,20.20
2023-10-11T10:30:09.170Z,20.20
2023-10-11T10:32:36.770Z,20.20
2023-10-11T10:35:19.520Z,20.20
2023-10-11T10:37:57.575Z,20.40
2023-10-11T10:40:29.250Z,20.30
2023-10-11T10:43:15.725Z,20.30
2023-10-11T10:45:43.876Z,20.30
2023-10-11T10:48:32.187Z,20.40
2023-10-11T10:51:05.187Z,20.40
2023-10-11T10:53:55.083Z,20.40
2023-10-11T10:56:22.975Z,20.40
2023-10-11T10:58:50.290Z,20.40
2023-10-11T11:01:27.908Z,20.40
2023-10-11T11:03:59.463Z,20.50
2023-10-11T11:06:38.521Z,20.50
2023-10-11T11:09:22.602Z,20.60
2023-10-11T11:11:50.412Z,20.60
2023-10-11T11:14:21.097Z,20.60
2023-10-11T11:17:02.163Z,20.60
2023-10-11T11:19:35.736Z,20.70
2023-10-11T11:22:13.059Z,20.80
2023-10-11T11:24:42.798Z,20.80
2023-10-11T11:27:17.280Z,20.80
2023-10-11T11:29:44.565Z,20.80
2023-10-11T11:32:18.797Z,20.80
2023-10-11T11:35:03.390Z,20.90
2023-10-11T11:37:35.443Z,21.00
2023-10-11T11:40:25.167Z,21.00
2023-10-11T11:42:52.372Z,21.10
2023-10-11T11:45:21.306Z,21.20
2023-10-11T11:47:58.370Z,21.30
2023-10-11T11:50:26.947Z,21.40
2023-10-11T11:52:58.395Z,21.50
2023-10-11T11:55:25.619Z,21.50
2023-10-11T11:57:54.159Z,21.60
2023-10-11T12:00:27.656Z,22.00
2023-10-11T12:03:00.424Z,21.60
2023-10-11T12:05:28.954Z,21.50
2023-10-11T12:07:59.148Z,21.50
2023-10-11T12:10:26.527Z,21.50
2023-10-11T12:12:56.277Z,21.60
2023-10-11T12:15:23.496Z,21.60
2023-10-11T12:17:54.471Z,21.60
2023-10-11T12:20:34.991Z,21.60
2023-10-11T12:23:12.701Z,21.60
2023-10-11T12:25:40.433Z,21.80
2023-10-11T12:28:09.199Z,21.70
2023-10-11T12:30:37.079Z,21.80
2023-10-11T12:33:08.065Z,21.80
2023-10-11T12:35:43.041Z,21.90
2023-10-11T12:38:13.572Z,21.80
2023-10-11T12:40:45.987Z,21.70
2023-10-11T12:43:13.300Z,21.70
2023-10-11T12:45:43.884Z,21.70
2023-10-11T12:48:16.557Z,21.70
2023-10-11T12:50:43.870Z,21.70
2023-10-11T12:53:14.947Z,21.60
2023-10-11T12:55:50.106Z,21.60
2023-10-11T12:58:20.089Z,21.60
2023-10-11T13:00:52.903Z,21.60
2023-10-11T13:03:22.267Z,21.60
2023-10-11T13:05:49.697Z,21.70
2023-10-11T13:08:17.262Z,21.70
2023-10-11T13:10:46.851Z,21.80
2023-10-11T13:13:15.725Z,21.60
2023-10-11T13:15:57.524Z,21.60
2023-10-11T13:18:26.235Z,21.70
2023-10-11T13:20:57.164Z,21.80
2023-10-11T13:23:31.463Z,21.80
2023-10-11T13:26:09.687Z,21.80
2023-10-11T13:28:37.882Z,21.90
2023-10-11T13:31:07.853Z,21.90
2023-10-11T13:33:37.058Z,21.90
2023-10-11T13:36:10.470Z,21.90
2023-10-11T13:38:38.791Z,21.90
2023-10-11T13:41:06.279Z,21.90
2023-10-11T13:43:38.518Z,21.80
2023-10-11T13:46:08.912Z,21.80
2023-10-11T13:48:41.681Z,21.80
2023-10-11T13:51:17.811Z,21.80
2023-10-11T13:53:45.813Z,21.70
2023-10-11T13:56:22.133Z,21.70
2023-10-11T13:58:52.766Z,21.70
2023-10-11T14:01:39.744Z,21.70
2023-10-11T14:04:15.205Z,21.60
2023-10-11T14:06:46.103Z,21.50
2023-10-11T14:09:17.820Z,21.60
2023-10-11T14:11:51.923Z,21.60
2023-10-11T14:14:23.924Z,21.60
2023-10-11T14:16:51.637Z,21.50
2023-10-11T14:19:19.447Z,21.60
2023-10-11T14:21:48.756Z,21.60
2023-10-11T14:24:20.248Z,21.60
2023-10-11T14:26:48.724Z,21.60
2023-10-11T14:29:17.434Z,21.50
2023-10-11T14:31:46.202Z,21.60
2023-10-11T14:34:13.497Z,21.50
2023-10-11T14:36:43.796Z,21.50
2023-10-11T14:39:19.579Z,21.40
2023-10-11T14:41:49.890Z,21.50
2023-10-11T14:44:18.242Z,21.50
2023-10-11T14:46:46.247Z,21.50
2023-10-11T14:49:13.643Z,21.40
2023-10-11T14:51:41.216Z,21.40
2023-10-11T14:54:08.539Z,21.40
2023-10-11T14:56:36.928Z,21.30
2023-10-11T14:59:05.169Z,21.30
2023-10-11T15:01:35.485Z,21.30
2023-10-11T15:04:10.988Z,21.20
2023-10-11T15:06:39.628Z,21.20
2023-10-11T15:09:09.847Z,21.20
2023-10-11T15:11:37.610Z,21.20
2023-10-11T15:14:08.271Z,21.10
2023-10-11T15:16:39.504Z,21.10
2023-10-11T15:19:10.870Z,21.10
2023-10-11T15:21:39.977Z,21.10
2023-10-11T15:24:14.415Z,21.00
2023-10-11T15:26:42.053Z,21.00
2023-10-11T15:29:09.306Z,20.90
2023-10-11T15:31:37.660Z,20.90
2023-10-11T15:34:08.977Z,20.90
2023-10-11T15:36:37.439Z,20.90
2023-10-11T15:39:11.387Z,20.90
2023-10-11T15:41:39.340Z,20.90
2023-10-11T15:44:06.638Z,20.80
2023-10-11T15:46:35.229Z,20.80
2023-10-11T15:49:02.533Z,20.80
2023-10-11T15:51:30.592Z,20.90
2023-10-11T15:53:57.936Z,21.00
2023-10-11T15:56:25.170Z,21.00
2023-10-11T15:58:53.692Z,21.00
2023-10-11T16:01:20.992Z,20.90
2023-10-11T16:03:54.205Z,20.90
2023-10-11T16:06:25.804Z,20.90
2023-10-11T16:08:53.654Z,20.90
2023-10-11T16:11:22.177Z,20.80
2023-10-11T16:13:50.030Z,20.90
2023-10-11T16:16:17.887Z,20.80
2023-10-11T16:18:47.267Z,20.80
2023-10-11T16:21:18.205Z,20.80
2023-10-11T16:23:47.074Z,20.70
2023-10-11T16:26:15.937Z,20.70
2023-10-11T16:28:44.564Z,20.70
2023-10-11T16:31:14.566Z,20.90
2023-10-11T16:33:44.981Z,20.70
2023-10-11T16:36:12.592Z,20.70
2023-10-11T16:38:39.986Z,20.70
2023-10-11T16:41:09.900Z,20.70
2023-10-11T16:43:40.075Z,20.70
2023-10-11T16:48:41.985Z,20.40
2023-10-11T16:51:10.969Z,20.40
2023-10-11T16:53:38.339Z,20.40
2023-10-11T16:56:14.017Z,20.70
2023-10-11T16:58:42.808Z,20.60
2023-10-11T17:01:11.124Z,20.60
2023-10-11T17:03:40.536Z,20.70
2023-10-11T17:06:08.708Z,20.80
2023-10-11T17:08:39.592Z,20.90
2023-10-11T17:11:11.481Z,20.90
2023-10-11T17:13:39.536Z,21.00
2023-10-11T17:16:07.889Z,21.00
2023-10-11T17:18:38.185Z,21.00
2023-10-11T17:21:06.972Z,21.00
2023-10-11T17:23:34.671Z,21.00
2023-10-11T17:26:13.808Z,21.00
2023-10-11T17:28:42.397Z,20.90
2023-10-11T17:31:13.384Z,21.00
2023-10-11T17:33:44.119Z,21.00
2023-10-11T17:36:11.698Z,21.00
2023-10-11T17:38:42.406Z,21.00
2023-10-11T17:41:14.758Z,21.00
2023-10-11T17:43:43.183Z,21.00
2023-10-11T17:46:10.847Z,21.00
2023-10-11T17:48:46.292Z,21.00
2023-10-11T17:51:18.272Z,21.00
2023-10-11T17:53:45.674Z,21.00
2023-10-11T17:56:17.206Z,21.00
2023-10-11T17:58:49.389Z,20.90
2023-10-11T18:01:18.878Z,20.90
2023-10-11T18:03:46.392Z,20.90
2023-10-11T18:06:13.669Z,20.90
2023-10-11T18:08:41.388Z,20.90
2023-10-11T18:11:08.600Z,20.90
2023-10-11T18:13:35.742Z,20.90
2023-10-11T18:16:03.313Z,20.90
2023-10-11T18:18:30.558Z,20.90
2023-10-11T18:20:57.707Z,20.80
2023-10-11T18:23:24.876Z,20.80
2023-10-11T18:25:52.732Z,20.80
2023-10-11T18:28:20.025Z,20.80
2023-10-11T18:30:51.927Z,20.80
2023-10-11T18:33:19.361Z,20.80
2023-10-11T18:35:47.434Z,20.80
2023-10-11T18:38:14.727Z,20.80
2023-10-11T18:40:43.185Z,20.80
2023-10-11T18:43:11.647Z,20.80
2023-10-11T18:45:38.955Z,20.80
2023-10-11T18:48:07.310Z,20.90
2023-10-11T18:50:34.634Z,20.90
2023-10-11T18:53:02.341Z,20.90
2023-10-11T18:55:29.570Z,21.00
2023-10-11T18:57:56.935Z,21.00
2023-10-11T19:00:25.216Z,21.30
2023-10-11T19:02:53.807Z,21.00
2023-10-11T19:05:22.932Z,21.00
2023-10-11T19:08:02.972Z,20.90
2023-10-11T19:10:34.034Z,21.00
2023-10-11T19:13:02.592Z,21.00
2023-10-11T19:15:31.424Z,21.00
2023-10-11T19:18:09.852Z,20.90
2023-10-11T19:20:38.273Z,20.90
2023-10-11T19:23:06.992Z,20.90
2023-10-11T19:25:35.536Z,21.00
2023-10-11T19:28:04.772Z,20.90
2023-10-11T19:30:37.875Z,20.90
2023-10-11T19:33:08.469Z,20.90
2023-10-11T19:35:37.360Z,20.80
2023-10-11T19:38:05.487Z,20.90
2023-10-11T19:40:33.409Z,20.90
2023-10-11T19:43:02.201Z,20.90
2023-10-11T19:45:29.458Z,20.80
2023-10-11T19:47:56.914Z,20.90
2023-10-11T19:50:27.719Z,20.80
2023-10-11T19:52:55.835Z,20.90
2023-10-11T19:55:23.561Z,20.90
2023-10-11T19:57:52.967Z,20.90
2023-10-11T20:00:21.955Z,20.80
2023-10-11T20:02:52.384Z,20.90
2023-10-11T20:05:20.508Z,20.20
2023-10-11T20:07:48.567Z,20.90
2023-10-11T20:10:16.936Z,20.90
2023-10-11T20:12:49.553Z,20.90
2023-10-11T20:15:18.891Z,20.90
2023-10-11T20:17:47.746Z,20.90
2023-10-11T20:20:16.761Z,20.90
2023-10-11T20:22:44.827Z,20.90
2023-10-11T20:25:17.083Z,20.80
2023-10-11T20:27:50.425Z,20.80
2023-10-11T20:30:20.239Z,20.80
2023-10-11T20:32:48.790Z,20.80
2023-10-11T20:35:19.105Z,20.70
2023-10-11T20:37:46.459Z,20.80
2023-10-11T20:40:22.877Z,20.80
2023-10-11T20:42:54.492Z,20.90
2023-10-11T20:45:23.594Z,21.60
2023-10-11T20:47:54.989Z,20.80
2023-10-11T20:50:29.604Z,20.80
2023-10-11T20:52:58.245Z,20.80
2023-10-11T20:55:25.856Z,20.80
2023-10-11T20:58:08.207Z,20.80
2023-10-11T21:00:49.504Z,20.80
2023-10-11T21:03:21.858Z,20.80
2023-10-11T21:05:50.997Z,20.80
2023-10-11T21:08:20.690Z,20.80
2023-10-11T21:10:49.340Z,20.80
2023-10-11T21:13:22.568Z,20.80
2023-10-11T21:15:51.546Z,20.80
2023-10-11T21:18:21.593Z,20.80
2023-10-11T21:20:52.973Z,20.80
2023-10-11T21:23:21.416Z,20.80
2023-10-11T21:25:57.245Z,20.90
2023-10-11T21:28:28.684Z,20.80
2023-10-11T21:30:59.009Z,20.80
2023-10-11T21:33:29.105Z,20.80
2023-10-11T21:36:00.455Z,20.80
2023-10-11T21:38:27.762Z,20.80
2023-10-11T21:40:56.637Z,20.80
2023-10-11T21:43:24.089Z,20.80
2023-10-11T21:45:52.107Z,20.80
2023-10-11T21:48:20.711Z,20.90
2023-10-11T21:50:48.894Z,20.80
2023-10-11T21:53:16.172Z,20.90
2023-10-11T21:55:47.794Z,20.90
2023-10-11T21:58:16.345Z,20.80
2023-10-11T22:00:52.754Z,20.80
2023-10-11T22:03:21.716Z,20.90
2023-10-11T22:05:53.175Z,20.80
2023-10-11T22:08:22.326Z,20.80
2023-10-11T22:10:53.800Z,20.90
2023-10-11T22:13:21.765Z,20.90
2023-10-11T22:15:53.173Z,20.90
2023-10-11T22:18:22.069Z,20.90
2023-10-11T22:20:50.592Z,20.90
2023-10-11T22:23:20.782Z,20.90
2023-10-11T22:25:50.154Z,20.90
2023-10-11T22:28:20.580Z,20.80
2023-10-11T22:30:49.094Z,20.80
2023-10-11T22:33:22.974Z,20.70
2023-10-11T22:35:52.417Z,20.70
2023-10-11T22:38:20.752Z,20.70
2023-10-11T22:40:51.266Z,20.70
2023-10-11T22:43:29.625Z,20.70
2023-10-11T22:45:58.800Z,20.70
2023-10-11T22:48:28.281Z,20.70
2023-10-11T22:50:56.385Z,20.70
2023-10-11T22:53:26.541Z,20.60
2023-10-11T22:55:53.975Z,20.70
2023-10-11T22:58:21.554Z,20.60
2023-10-11T23:00:49.787Z,20.70
2023-10-11T23:03:17.728Z,20.60
2023-10-11T23:05:45.796Z,20.70
2023-10-11T23:08:14.021Z,20.70
2023-10-11T23:10:46.342Z,20.70
2023-10-11T23:13:16.539Z,20.70
2023-10-11T23:15:53.752Z,20.70
2023-10-11T23:18:27.690Z,20.70
2023-10-11T23:20:58.981Z,20.70
2023-10-11T23:23:35.458Z,20.70
2023-10-11T23:26:08.926Z,20.80
2023-10-11T23:28:36.999Z,20.80
2023-10-11T23:31:09.078Z,20.80
2023-10-11T23:33:50.567Z,20.80
2023-10-11T23:36:26.209Z,21.00
2023-10-11T23:39:07.843Z,20.80
2023-10-11T23:41:45.708Z,20.70
2023-10-11T23:44:21.500Z,20.70
2023-10-11T23:46:58.874Z,20.70
2023-10-11T23:52:07.443Z,20.70
2023-10-11T23:54:39.521Z,20.40
2023-10-11T23:57:18.323Z,20.60
2023-10-11T23:59:46.313Z,20.70
